createdAt,value
2022-08-09T00:01:00.247Z,101437.91
2022-08-09T00:04:03.773Z,101437.14
2022-08-09T00:06:23.316Z,101444.36
2022-08-09T00:08:52.040Z,101453.32
2022-08-09T00:11:25.050Z,101451.66
2022-08-09T00:13:56.379Z,101450.84
2022-08-09T00:16:36.695Z,101444.73
2022-08-09T00:19:09.239Z,101450.06
2022-08-09T00:21:55.713Z,101451.86
2022-08-09T00:24:27.203Z,101448.38
2022-08-09T00:26:57.318Z,101451.93
2022-08-09T00:30:09.715Z,101443.20
2022-08-09T00:32:26.733Z,101448.48
2022-08-09T00:35:05.749Z,101452.03
2022-08-09T00:37:35.233Z,101451.13
2022-08-09T00:40:12.362Z,101450.24
2022-08-09T00:44:16.133Z,101446.75
2022-08-09T00:45:35.184Z,101457.26
2022-08-09T00:48:05.911Z,101457.26
2022-08-09T00:50:37.892Z,101450.30
2022-08-09T00:53:10.532Z,101460.91
2022-08-09T00:56:03.809Z,101452.16
2022-08-09T00:58:30.816Z,101463.58
2022-08-09T01:01:00.448Z,101461.84
2022-08-09T01:03:45.708Z,101460.10
2022-08-09T01:06:25.527Z,101459.33
2022-08-09T01:09:13.165Z,101453.22
2022-08-09T01:11:55.662Z,101465.72
2022-08-09T01:14:32.808Z,101464.98
2022-08-09T01:17:08.828Z,101459.83
2022-08-09T01:20:02.130Z,101462.55
2022-08-09T01:22:54.700Z,101462.67
2022-08-09T01:25:42.180Z,101461.96
2022-08-09T01:28:18.983Z,101466.58
2022-08-09T01:30:51.582Z,101467.62
2022-08-09T01:33:25.860Z,101466.05
2022-08-09T01:36:03.295Z,101470.59
2022-08-09T01:38:38.583Z,101461.91
2022-08-09T01:41:13.967Z,101462.02
2022-08-09T01:43:51.070Z,101463.87
2022-08-09T01:46:26.932Z,101475.45
2022-08-09T01:48:59.804Z,101472.09
2022-08-09T01:51:32.192Z,101466.89
2022-08-09T01:54:04.733Z,101469.62
2022-08-09T01:56:36.630Z,101464.36
2022-08-09T01:59:10.227Z,101468.78
2022-08-09T02:01:59.988Z,101470.53
2022-08-09T02:04:33.275Z,101471.42
2022-08-09T02:07:08.693Z,101469.68
2022-08-09T02:09:59.895Z,101476.74
2022-08-09T02:12:32.924Z,101470.64
2022-08-09T02:15:06.327Z,101470.75
2022-08-09T02:18:00.251Z,101468.16
2022-08-09T02:20:32.826Z,101468.27
2022-08-09T02:23:07.364Z,101469.21
2022-08-09T02:25:42.533Z,101470.13
2022-08-09T02:28:24.243Z,101467.53
2022-08-09T02:31:01.210Z,101473.66
2022-08-09T02:33:38.443Z,101471.06
2022-08-09T02:36:30.882Z,101472.86
2022-08-09T02:39:04.385Z,101476.38
2022-08-09T02:41:40.957Z,101479.83
2022-08-09T02:44:29.570Z,101479.83
2022-08-09T02:47:04.645Z,101478.08
2022-08-09T02:49:38.839Z,101477.17
2022-08-09T02:52:15.289Z,101474.50
2022-08-09T02:54:54.524Z,101478.87
2022-08-09T02:57:27.915Z,101479.75
2022-08-09T03:00:20.591Z,101483.20
2022-08-09T03:02:58.482Z,101481.41
2022-08-09T03:05:34.757Z,101487.52
2022-08-09T03:08:05.456Z,101487.52
2022-08-09T03:10:36.536Z,101490.10
2022-08-09T03:13:08.456Z,101494.52
2022-08-09T03:16:06.333Z,101498.95
2022-08-09T03:18:31.131Z,101491.11
2022-08-09T03:21:02.624Z,101489.41
2022-08-09T03:23:31.856Z,101493.83
2022-08-09T03:26:03.401Z,101495.58
2022-08-09T03:28:36.070Z,101488.58
2022-08-09T03:31:10.492Z,101489.45
2022-08-09T03:33:54.588Z,101486.84
2022-08-09T03:36:27.535Z,101488.66
2022-08-09T03:38:57.108Z,101484.20
2022-08-09T03:41:30.306Z,101486.82
2022-08-09T03:44:15.547Z,101489.41
2022-08-09T03:46:44.340Z,101491.11
2022-08-09T03:49:18.937Z,101492.83
2022-08-09T03:51:56.697Z,101494.52
2022-08-09T03:54:32.103Z,101502.37
2022-08-09T03:57:04.481Z,101497.01
2022-08-09T03:59:54.858Z,101498.69
2022-08-09T04:02:27.946Z,101501.21
2022-08-09T04:05:06.398Z,101501.98
2022-08-09T04:07:52.476Z,101505.41
2022-08-09T04:10:29.658Z,101507.94
2022-08-09T04:13:00.699Z,101505.23
2022-08-09T04:15:52.460Z,101509.55
2022-08-09T04:18:21.285Z,101505.06
2022-08-09T04:20:51.214Z,101511.13
2022-08-09T04:23:24.442Z,101509.27
2022-08-09T04:25:54.771Z,101514.44
2022-08-09T04:28:34.315Z,101505.55
2022-08-09T04:31:09.055Z,101501.92
2022-08-09T04:33:51.566Z,101505.38
2022-08-09T04:36:24.746Z,101500.00
2022-08-09T04:38:54.540Z,101499.93
2022-08-09T04:41:31.981Z,101499.86
2022-08-09T04:44:06.328Z,101504.13
2022-08-09T04:46:57.209Z,101504.95
2022-08-09T04:49:53.319Z,101511.86
2022-08-09T04:52:22.105Z,101517.08
2022-08-09T04:54:56.293Z,101510.89
2022-08-09T04:57:25.628Z,101516.10
2022-08-09T04:59:56.061Z,101521.33
2022-08-09T05:02:27.571Z,101519.55
2022-08-09T05:04:56.442Z,101528.30
2022-08-09T05:07:29.335Z,101524.69
2022-08-09T05:10:01.649Z,101521.98
2022-08-09T05:12:33.153Z,101524.61
2022-08-09T05:15:03.852Z,101528.05
2022-08-09T05:18:37.691Z,101530.62
2022-08-09T05:20:30.469Z,101534.87
2022-08-09T05:23:54.787Z,101539.13
2022-08-09T05:25:50.706Z,101534.64
2022-08-09T05:28:20.670Z,101535.36
2022-08-09T05:30:49.329Z,101544.88
2022-08-09T05:33:26.466Z,101541.22
2022-08-09T05:36:03.444Z,101551.53
2022-08-09T05:38:32.671Z,101539.07
2022-08-09T05:41:01.242Z,101540.62
2022-08-09T05:43:31.868Z,101544.92
2022-08-09T05:46:01.205Z,101536.80
2022-08-09T05:48:33.147Z,101538.40
2022-08-09T05:51:43.124Z,101545.34
2022-08-09T05:53:57.405Z,101542.42
2022-08-09T05:56:27.653Z,101540.41
2022-08-09T05:58:58.342Z,101539.33
2022-08-09T06:01:34.081Z,101542.66
2022-08-09T06:04:12.294Z,101538.02
2022-08-09T06:06:46.712Z,101546.63
2022-08-09T06:09:40.890Z,101545.52
2022-08-09T06:12:09.114Z,101545.43
2022-08-09T06:14:37.719Z,101542.58
2022-08-09T06:17:09.573Z,101550.36
2022-08-09T06:19:39.120Z,101551.09
2022-08-09T06:22:15.357Z,101552.77
2022-08-09T06:24:44.687Z,101547.33
2022-08-09T06:27:15.624Z,101553.50
2022-08-09T06:29:48.348Z,101547.30
2022-08-09T06:32:53.486Z,101548.14
2022-08-09T06:35:22.117Z,101560.47
2022-08-09T06:38:11.295Z,101559.50
2022-08-09T06:40:43.861Z,101560.29
2022-08-09T06:43:12.977Z,101555.78
2022-08-09T06:46:06.834Z,101556.52
2022-08-09T06:48:31.306Z,101563.32
2022-08-09T06:51:00.158Z,101563.95
2022-08-09T06:53:33.371Z,101561.91
2022-08-09T06:56:09.292Z,101559.91
2022-08-09T07:00:47.719Z,101562.34
2022-08-09T07:01:35.665Z,101564.59
2022-08-09T07:04:19.762Z,101569.47
2022-08-09T07:06:53.416Z,101561.25
2022-08-09T07:09:55.013Z,101568.92
2022-08-09T07:12:20.092Z,101569.54
2022-08-09T07:14:50.698Z,101561.14
2022-08-09T07:17:21.712Z,101574.02
2022-08-09T07:19:55.433Z,101572.00
2022-08-09T07:22:34.225Z,101576.06
2022-08-09T07:25:09.821Z,101576.63
2022-08-09T07:27:42.633Z,101571.02
2022-08-09T07:30:24.753Z,101575.12
2022-08-09T07:32:55.298Z,101569.25
2022-08-09T07:35:25.686Z,101574.12
2022-08-09T07:37:59.592Z,101576.42
2022-08-09T07:40:37.308Z,101577.89
2022-08-09T07:43:17.434Z,101579.51
2022-08-09T07:45:46.309Z,101579.24
2022-08-09T07:48:22.580Z,101586.20
2022-08-09T07:51:10.156Z,101575.19
2022-08-09T07:54:05.044Z,101577.38
2022-08-09T07:56:48.697Z,101581.19
2022-08-09T07:59:34.302Z,101581.52
2022-08-09T08:02:19.781Z,101580.90
2022-08-09T08:04:49.413Z,101583.02
2022-08-09T08:08:06.510Z,101575.45
2022-08-09T08:10:11.865Z,101581.81
2022-08-09T08:12:45.571Z,101581.66
2022-08-09T08:15:17.541Z,101580.67
2022-08-09T08:17:54.741Z,101585.48
2022-08-09T08:20:28.702Z,101583.31
2022-08-09T08:23:03.772Z,101583.27
2022-08-09T08:25:49.859Z,101589.21
2022-08-09T08:28:32.270Z,101583.48
2022-08-09T08:31:08.836Z,101586.91
2022-08-09T08:33:53.001Z,101588.41
2022-08-09T08:36:28.810Z,101585.61
2022-08-09T08:39:00.488Z,101594.31
2022-08-09T08:41:50.896Z,101588.05
2022-08-09T08:44:26.927Z,101587.34
2022-08-09T08:47:02.166Z,101589.86
2022-08-09T08:49:46.432Z,101595.93
2022-08-09T08:52:58.473Z,101589.72
2022-08-09T08:55:10.670Z,101587.11
2022-08-09T08:57:39.455Z,101590.14
2022-08-09T09:00:17.083Z,101592.80
2022-08-09T09:02:52.486Z,101596.34
2022-08-09T09:05:57.810Z,101593.02
2022-08-09T09:08:30.048Z,101588.86
2022-08-09T09:11:03.725Z,101591.52
2022-08-09T09:13:54.911Z,101585.27
2022-08-09T09:16:30.659Z,101588.80
2022-08-09T09:19:37.745Z,101585.97
2022-08-09T09:22:04.099Z,101589.66
2022-08-09T09:24:37.811Z,101590.31
2022-08-09T09:27:08.757Z,101588.36
2022-08-09T09:30:14.091Z,101590.09
2022-08-09T09:32:34.549Z,101593.73
2022-08-09T09:35:07.504Z,101593.73
2022-08-09T09:37:40.402Z,101596.26
2022-08-09T09:40:12.296Z,101592.52
2022-08-09T09:42:46.366Z,101585.39
2022-08-09T09:45:26.720Z,101580.89
2022-08-09T09:48:03.313Z,101582.53
2022-08-09T09:50:49.559Z,101582.53
2022-08-09T09:53:34.379Z,101584.91
2022-08-09T09:56:20.067Z,101589.13
2022-08-09T09:59:00.743Z,101579.92
2022-08-09T10:01:30.175Z,101588.30
2022-08-09T10:04:15.945Z,101592.64
2022-08-09T10:06:52.063Z,101586.20
2022-08-09T10:09:24.094Z,101588.48
2022-08-09T10:12:14.315Z,101586.37
2022-08-09T10:14:51.756Z,101591.62
2022-08-09T10:17:55.033Z,101580.72
2022-08-09T10:20:32.851Z,101584.17
2022-08-09T10:23:22.311Z,101586.22
2022-08-09T10:26:07.840Z,101586.95
2022-08-09T10:28:41.403Z,101585.95
2022-08-09T10:32:27.895Z,101576.23
2022-08-09T10:34:10.187Z,101579.83
2022-08-09T10:36:55.795Z,101582.77
2022-08-09T10:39:26.900Z,101578.37
2022-08-09T10:41:57.125Z,101574.52
2022-08-09T10:44:29.914Z,101575.34
2022-08-09T10:48:17.296Z,101577.95
2022-08-09T10:50:30.862Z,101568.83
2022-08-09T10:53:10.562Z,101565.68
2022-08-09T10:55:58.188Z,101569.92
2022-08-09T10:58:33.875Z,101565.81
2022-08-09T11:03:02.016Z,101570.00
2022-08-09T11:04:28.577Z,101562.84
2022-08-09T11:07:57.848Z,101559.29
2022-08-09T11:11:08.364Z,101563.64
2022-08-09T11:13:50.105Z,101550.05
2022-08-09T11:16:47.547Z,101555.64
2022-08-09T11:20:19.617Z,101548.87
2022-08-09T11:23:07.106Z,101562.36
2022-08-09T11:25:51.523Z,101554.21
2022-08-09T11:28:55.990Z,101546.95
2022-08-09T11:31:49.549Z,101546.64
2022-08-09T11:34:28.163Z,101543.94
2022-08-09T11:37:00.466Z,101536.70
2022-08-09T11:39:33.582Z,101541.39
2022-08-09T11:42:14.927Z,101541.58
2022-08-09T11:44:48.636Z,101542.46
2022-08-09T11:47:17.373Z,101544.00
2022-08-09T11:51:19.123Z,101541.80
2022-08-09T11:53:57.610Z,101533.44
2022-08-09T11:56:41.772Z,101540.98
2022-08-09T11:59:30.144Z,101538.89
2022-08-09T12:02:34.265Z,101529.89
2022-08-09T12:04:58.964Z,101522.39
2022-08-09T12:07:41.363Z,101517.91
2022-08-09T12:10:38.891Z,101524.47
2022-08-09T12:13:03.844Z,101519.64
2022-08-09T12:15:51.946Z,101517.38
2022-08-09T12:18:25.874Z,101525.32
2022-08-09T12:21:00.722Z,101519.42
2022-08-09T12:23:56.681Z,101515.76
2022-08-09T12:26:26.247Z,101509.97
2022-08-09T12:29:12.802Z,101513.86
2022-08-09T12:31:59.132Z,101509.62
2022-08-09T12:34:39.807Z,101503.80
2022-08-09T12:37:23.564Z,101494.44
2022-08-09T12:40:08.969Z,101501.81
2022-08-09T12:42:43.040Z,101501.02
2022-08-09T12:45:33.671Z,101495.91
2022-08-09T12:48:01.411Z,101499.03
2022-08-09T12:50:30.803Z,101496.23
2022-08-09T12:53:18.011Z,101495.61
2022-08-09T12:56:14.375Z,101489.87
2022-08-09T12:58:42.520Z,101492.50
2022-08-09T13:01:28.359Z,101496.45
2022-08-09T13:04:00.436Z,101495.17
2022-08-09T13:06:34.674Z,101479.07
2022-08-09T13:09:11.227Z,101481.20
2022-08-09T13:11:49.704Z,101477.80
2022-08-09T13:14:43.893Z,101482.70
2022-08-09T13:17:44.274Z,101485.09
2022-08-09T13:20:17.502Z,101470.03
2022-08-09T13:23:06.154Z,101473.90
2022-08-09T13:25:52.980Z,101471.00
2022-08-09T13:28:34.097Z,101463.11
2022-08-09T13:32:12.594Z,101468.30
2022-08-09T13:33:58.300Z,101473.39
2022-08-09T13:36:40.309Z,101470.46
2022-08-09T13:41:18.840Z,101473.27
2022-08-09T13:42:04.916Z,101478.64
2022-08-09T13:44:34.823Z,101475.09
2022-08-09T13:47:26.520Z,101477.98
2022-08-09T13:49:58.018Z,101478.42
2022-08-09T13:52:30.591Z,101472.69
2022-08-09T13:55:04.593Z,101467.44
2022-08-09T13:57:39.696Z,101472.89
2022-08-09T14:00:18.445Z,101462.95
2022-08-09T14:03:04.082Z,101467.50
2022-08-09T14:05:59.481Z,101473.19
2022-08-09T14:08:31.357Z,101468.80
2022-08-09T14:11:01.087Z,101468.03
2022-08-09T14:14:22.485Z,101468.20
2022-08-09T14:16:28.561Z,101471.63
2022-08-09T14:18:58.390Z,101464.25
2022-08-09T14:21:29.506Z,101462.34
2022-08-09T14:24:05.542Z,101462.04
2022-08-09T14:26:51.188Z,101459.91
2022-08-09T14:30:04.197Z,101459.82
2022-08-09T14:32:11.071Z,101463.76
2022-08-09T14:34:41.702Z,101461.77
2022-08-09T14:37:11.005Z,101464.66
2022-08-09T14:39:47.455Z,101468.00
2022-08-09T14:42:30.357Z,101465.92
2022-08-09T14:46:57.564Z,101462.85
2022-08-09T14:47:59.732Z,101460.69
2022-08-09T14:50:33.062Z,101465.86
2022-08-09T14:53:06.274Z,101464.51
2022-08-09T14:55:42.039Z,101464.22
2022-08-09T14:58:12.163Z,101453.04
2022-08-09T15:00:42.501Z,101451.50
2022-08-09T15:03:20.549Z,101454.75
2022-08-09T15:05:59.749Z,101458.73
2022-08-09T15:08:32.879Z,101449.84
2022-08-09T15:11:07.419Z,101454.20
2022-08-09T15:13:48.384Z,101446.72
2022-08-09T15:16:30.379Z,101448.22
2022-08-09T15:19:02.611Z,101441.80
2022-08-09T15:21:57.232Z,101441.30
2022-08-09T15:24:29.153Z,101444.78
2022-08-09T15:26:58.039Z,101451.84
2022-08-09T15:30:55.747Z,101450.98
2022-08-09T15:32:28.905Z,101451.05
2022-08-09T15:35:01.912Z,101456.16
2022-08-09T15:37:56.773Z,101449.77
2022-08-09T15:40:36.874Z,101443.69
2022-08-09T15:43:05.729Z,101446.13
2022-08-09T15:45:51.891Z,101451.86
2022-08-09T15:48:29.308Z,101451.26
2022-08-09T15:51:00.500Z,101457.68
2022-08-09T15:54:03.756Z,101452.50
2022-08-09T15:56:21.005Z,101452.84
2022-08-09T15:58:52.562Z,101459.20
2022-08-09T16:01:21.529Z,101455.75
2022-08-09T16:03:51.002Z,101464.83
2022-08-09T16:06:32.755Z,101461.61
2022-08-09T16:09:04.949Z,101462.73
2022-08-09T16:11:34.113Z,101458.72
2022-08-09T16:14:07.722Z,101462.65
2022-08-09T16:16:39.183Z,101458.52
2022-08-09T16:19:13.515Z,101465.19
2022-08-09T16:21:52.050Z,101466.41
2022-08-09T16:24:33.022Z,101465.14
2022-08-09T16:27:05.217Z,101465.59
2022-08-09T16:29:37.286Z,101457.98
2022-08-09T16:32:18.561Z,101467.12
2022-08-09T16:34:57.980Z,101466.69
2022-08-09T16:37:55.604Z,101473.16
2022-08-09T16:40:29.727Z,101474.52
2022-08-09T16:43:07.953Z,101473.06
2022-08-09T16:45:37.249Z,101472.40
2022-08-09T16:48:37.913Z,101474.34
2022-08-09T16:51:08.201Z,101465.02
2022-08-09T16:54:09.129Z,101470.55
2022-08-09T16:56:32.494Z,101474.47
2022-08-09T16:59:06.925Z,101473.88
2022-08-09T17:01:43.768Z,101478.69
2022-08-09T17:04:20.036Z,101486.98
2022-08-09T17:08:46.751Z,101482.86
2022-08-09T17:09:47.267Z,101487.60
2022-08-09T17:12:17.019Z,101491.43
2022-08-09T17:14:49.042Z,101486.41
2022-08-09T17:17:27.047Z,101486.69
2022-08-09T17:20:29.797Z,101486.88
2022-08-09T17:22:49.791Z,101490.70
2022-08-09T17:25:19.727Z,101489.16
2022-08-09T17:27:54.411Z,101492.94
2022-08-09T17:30:28.076Z,101500.36
2022-08-09T17:33:04.823Z,101493.58
2022-08-09T17:35:41.237Z,101500.08
2022-08-09T17:38:32.404Z,101503.84
2022-08-09T17:41:02.238Z,101500.42
2022-08-09T17:43:33.843Z,101498.88
2022-08-09T17:46:07.296Z,101497.40
2022-08-09T17:48:39.769Z,101496.00
2022-08-09T17:51:19.290Z,101506.97
2022-08-09T17:53:53.645Z,101500.33
2022-08-09T17:56:26.587Z,101506.90
2022-08-09T17:58:59.651Z,101501.09
2022-08-09T18:01:40.905Z,101499.58
2022-08-09T18:04:19.055Z,101508.69
2022-08-09T18:06:54.169Z,101506.37
2022-08-09T18:09:40.703Z,101512.92
2022-08-09T18:12:17.045Z,101506.28
2022-08-09T18:14:54.768Z,101507.55
2022-08-09T18:18:02.628Z,101518.56
2022-08-09T18:21:01.832Z,101520.77
2022-08-09T18:23:04.911Z,101520.41
2022-08-09T18:25:50.292Z,101522.47
2022-08-09T18:30:34.485Z,101520.23
2022-08-09T18:31:13.789Z,101522.41
2022-08-09T18:33:48.872Z,101527.16
2022-08-09T18:36:25.624Z,101530.99
2022-08-09T18:39:03.008Z,101528.65
2022-08-09T18:41:34.537Z,101531.48
2022-08-09T18:44:12.864Z,101528.16
2022-08-09T18:46:46.262Z,101534.50
2022-08-09T18:49:23.713Z,101533.03
2022-08-09T18:51:55.465Z,101539.41
2022-08-09T18:54:28.780Z,101537.86
2022-08-09T18:57:05.243Z,101537.09
2022-08-09T18:59:48.420Z,101539.92
2022-08-09T19:02:19.149Z,101534.75
2022-08-09T19:05:03.286Z,101542.02
2022-08-09T19:07:33.449Z,101542.20
2022-08-09T19:10:17.074Z,101541.48
2022-08-09T19:13:01.789Z,101541.67
2022-08-09T19:15:36.429Z,101542.70
2022-08-09T19:18:06.134Z,101545.51
2022-08-09T19:20:45.988Z,101532.48
2022-08-09T19:24:32.300Z,101547.49
2022-08-09T19:26:14.845Z,101545.86
2022-08-09T19:28:48.862Z,101546.82
2022-08-09T19:31:17.942Z,101548.63
2022-08-09T19:33:46.734Z,101552.21
2022-08-09T19:36:15.445Z,101553.16
2022-08-09T19:38:45.606Z,101547.09
2022-08-09T19:41:32.627Z,101545.37
2022-08-09T19:44:05.022Z,101549.85
2022-08-09T19:46:35.326Z,101546.42
2022-08-09T19:50:06.598Z,101547.38
2022-08-09T19:51:56.909Z,101542.99
2022-08-09T19:54:26.498Z,101543.02
2022-08-09T19:56:56.081Z,101549.27
2022-08-09T19:59:58.999Z,101546.75
2022-08-09T20:04:10.570Z,101550.35
2022-08-09T20:05:11.807Z,101544.30
2022-08-09T20:08:00.168Z,101552.31
2022-08-09T20:10:34.350Z,101553.25
2022-08-09T20:13:07.903Z,101551.56
2022-08-09T20:16:35.162Z,101547.14
2022-08-09T20:18:28.038Z,101548.08
2022-08-09T20:20:57.686Z,101547.24
2022-08-09T20:23:39.766Z,101547.24
2022-08-09T20:26:09.745Z,101554.30
2022-08-09T20:28:48.469Z,101553.45
2022-08-09T20:31:18.973Z,101551.72
2022-08-09T20:33:52.383Z,101553.52
2022-08-09T20:36:27.733Z,101549.23
2022-08-09T20:39:28.127Z,101551.03
2022-08-09T20:41:48.940Z,101547.64
2022-08-09T20:44:26.356Z,101552.97
2022-08-09T20:46:55.964Z,101553.95
2022-08-09T20:49:27.003Z,101550.47
2022-08-09T20:51:57.486Z,101550.52
2022-08-09T20:54:30.471Z,101552.36
2022-08-09T20:56:59.237Z,101547.14
2022-08-09T21:00:19.292Z,101545.41
2022-08-09T21:02:24.000Z,101542.86
2022-08-09T21:05:54.620Z,101546.48
2022-08-09T21:07:44.403Z,101553.67
2022-08-09T21:10:13.362Z,101557.25
2022-08-09T21:15:34.474Z,101559.07
2022-08-09T21:18:29.567Z,101553.84
2022-08-09T21:20:54.166Z,101558.27
2022-08-09T21:23:26.573Z,101558.30
2022-08-09T21:26:12.267Z,101555.67
2022-08-09T21:28:55.956Z,101556.52
2022-08-09T21:31:49.284Z,101558.30
2022-08-09T21:34:28.701Z,101557.50
2022-08-09T21:36:58.481Z,101556.66
2022-08-09T21:39:28.134Z,101559.37
2022-08-09T21:42:11.112Z,101559.37
2022-08-09T21:44:42.630Z,101560.30
2022-08-09T21:47:17.454Z,101561.25
2022-08-09T21:49:48.976Z,101571.00
2022-08-09T21:52:20.488Z,101565.78
2022-08-09T21:54:57.182Z,101563.19
2022-08-09T21:57:38.278Z,101566.70
2022-08-09T22:00:25.224Z,101562.30
2022-08-09T22:02:58.390Z,101561.45
2022-08-09T22:05:36.690Z,101564.08
2022-08-09T22:08:12.987Z,101561.45
2022-08-09T22:11:50.024Z,101566.75
2022-08-09T22:13:35.662Z,101565.09
2022-08-09T22:16:08.529Z,101555.50
2022-08-09T22:18:54.583Z,101562.54
2022-08-09T22:21:27.467Z,101557.35
2022-08-09T22:24:17.054Z,101558.31
2022-08-09T22:26:51.110Z,101560.98
2022-08-09T22:29:28.946Z,101555.80
2022-08-09T22:32:29.502Z,101557.62
2022-08-09T22:35:06.091Z,101553.35
2022-08-09T22:37:40.325Z,101551.64
2022-08-09T22:40:20.147Z,101553.42
2022-08-09T22:42:49.090Z,101553.49
2022-08-09T22:48:12.886Z,101548.30
2022-08-09T22:48:29.855Z,101550.15
2022-08-09T22:50:55.630Z,101551.99
2022-08-09T22:53:24.196Z,101542.40
2022-08-09T22:56:29.755Z,101547.69
2022-08-09T22:58:41.915Z,101531.09
2022-08-09T23:01:11.378Z,101542.46
2022-08-09T23:04:04.236Z,101545.13
2022-08-09T23:06:50.776Z,101547.81
2022-08-09T23:09:19.458Z,101548.73
2022-08-09T23:11:48.175Z,101542.63
2022-08-09T23:14:17.645Z,101547.03
2022-08-09T23:17:05.908Z,101544.40
2022-08-09T23:20:00.610Z,101554.09
2022-08-09T23:22:23.358Z,101545.31
2022-08-09T23:24:52.139Z,101543.58
2022-08-09T23:27:21.118Z,101544.45
2022-08-09T23:29:49.736Z,101543.64
2022-08-09T23:32:18.747Z,101548.86
2022-08-09T23:34:47.450Z,101551.52
2022-08-09T23:37:17.154Z,101545.37
2022-08-09T23:39:50.429Z,101548.89
2022-08-09T23:42:19.003Z,101542.78
2022-08-09T23:44:47.557Z,101551.52
2022-08-09T23:47:16.165Z,101548.12
2022-08-09T23:49:44.624Z,101539.44
2022-08-09T23:52:13.144Z,101545.64
2022-08-09T23:54:45.427Z,101540.41
2022-08-09T23:57:14.494Z,101546.58
